createdAt,value
2023-05-17T00:00:30.416Z,91.73
2023-05-17T00:01:30.409Z,90.95
2023-05-17T00:02:30.400Z,90.95
2023-05-17T00:03:30.381Z,91.26
2023-05-17T00:04:30.393Z,91.26
2023-05-17T00:05:30.451Z,91.16
2023-05-17T00:06:30.664Z,91.67
2023-05-17T00:07:30.396Z,91.77
2023-05-17T00:08:30.305Z,92.19
2023-05-17T00:09:30.319Z,92.70
2023-05-17T00:10:30.283Z,93.01
2023-05-17T00:11:30.278Z,92.40
2023-05-17T00:12:30.258Z,92.29
2023-05-17T00:13:30.255Z,92.80
2023-05-17T00:14:30.244Z,93.12
2023-05-17T00:15:30.217Z,92.50
2023-05-17T00:16:30.206Z,92.50
2023-05-17T00:17:30.272Z,92.50
2023-05-17T00:18:30.243Z,92.50
2023-05-17T00:19:30.188Z,92.02
2023-05-17T00:20:30.156Z,92.13
2023-05-17T00:21:30.137Z,92.33
2023-05-17T00:22:30.264Z,92.54
2023-05-17T00:23:30.122Z,92.50
2023-05-17T00:24:30.116Z,91.92
2023-05-17T00:25:30.398Z,91.40
2023-05-17T00:26:30.078Z,91.40
2023-05-17T00:27:30.072Z,91.61
2023-05-17T00:28:30.075Z,91.71
2023-05-17T00:29:30.038Z,91.40
2023-05-17T00:30:30.038Z,91.30
2023-05-17T00:31:30.026Z,91.50
2023-05-17T00:32:30.059Z,92.02
2023-05-17T00:33:30.019Z,91.92
2023-05-17T00:34:30.003Z,92.44
2023-05-17T00:35:30.225Z,92.91
2023-05-17T00:36:29.959Z,92.80
2023-05-17T00:37:29.963Z,91.09
2023-05-17T00:38:30.041Z,91.09
2023-05-17T00:39:29.933Z,91.26
2023-05-17T00:40:29.900Z,91.26
2023-05-17T00:41:29.901Z,91.88
2023-05-17T00:42:29.878Z,91.98
2023-05-17T00:43:29.869Z,91.98
2023-05-17T00:44:29.863Z,91.26
2023-05-17T00:45:29.970Z,90.02
2023-05-17T00:46:29.819Z,89.81
2023-05-17T00:47:29.877Z,90.02
2023-05-17T00:48:29.920Z,90.74
2023-05-17T00:49:29.788Z,90.95
2023-05-17T00:50:29.779Z,91.88
2023-05-17T00:51:29.757Z,92.60
2023-05-17T00:52:29.747Z,92.19
2023-05-17T00:53:29.737Z,92.29
2023-05-17T00:54:29.849Z,91.36
2023-05-17T00:55:29.975Z,91.56
2023-05-17T00:56:29.693Z,91.30
2023-05-17T00:57:29.682Z,90.68
2023-05-17T00:58:29.663Z,91.50
2023-05-17T00:59:29.651Z,91.61
2023-05-17T01:00:29.645Z,91.92
2023-05-17T01:01:29.627Z,91.30
2023-05-17T01:02:29.954Z,91.61
2023-05-17T01:03:29.739Z,91.82
2023-05-17T01:04:29.658Z,92.23
2023-05-17T01:05:29.974Z,92.23
2023-05-17T01:06:29.603Z,92.23
2023-05-17T01:07:29.580Z,91.82
2023-05-17T01:08:29.541Z,91.61
2023-05-17T01:09:29.529Z,91.30
2023-05-17T01:10:29.694Z,91.40
2023-05-17T01:11:29.505Z,91.61
2023-05-17T01:12:29.488Z,92.02
2023-05-17T01:13:29.477Z,92.44
2023-05-17T01:14:29.463Z,93.37
2023-05-17T01:15:29.734Z,92.33
2023-05-17T01:16:29.437Z,91.71
2023-05-17T01:17:29.475Z,91.71
2023-05-17T01:18:29.516Z,91.09
2023-05-17T01:19:29.448Z,91.50
2023-05-17T01:20:29.537Z,92.02
2023-05-17T01:21:29.375Z,92.02
2023-05-17T01:22:29.377Z,92.33
2023-05-17T01:23:29.350Z,92.74
2023-05-17T01:24:29.335Z,92.44
2023-05-17T01:25:29.656Z,92.23
2023-05-17T01:26:29.486Z,92.13
2023-05-17T01:27:29.285Z,91.92
2023-05-17T01:28:29.289Z,92.54
2023-05-17T01:29:29.265Z,92.02
2023-05-17T01:30:29.256Z,91.30
2023-05-17T01:31:29.242Z,91.13
2023-05-17T01:32:29.307Z,90.93
2023-05-17T01:33:29.297Z,90.41
2023-05-17T01:34:29.205Z,90.10
2023-05-17T01:35:29.538Z,90.93
2023-05-17T01:36:29.183Z,90.93
2023-05-17T01:37:29.175Z,90.93
2023-05-17T01:38:29.154Z,91.24
2023-05-17T01:39:29.137Z,91.24
2023-05-17T01:40:29.121Z,91.03
2023-05-17T01:41:29.107Z,91.34
2023-05-17T01:42:29.208Z,90.72
2023-05-17T01:43:29.085Z,90.52
2023-05-17T01:44:29.758Z,91.03
2023-05-17T01:45:29.371Z,91.44
2023-05-17T01:46:29.054Z,91.34
2023-05-17T01:47:29.056Z,91.13
2023-05-17T01:48:29.054Z,90.10
2023-05-17T01:49:29.009Z,90.10
2023-05-17T01:50:29.007Z,90.62
2023-05-17T01:51:28.990Z,90.62
2023-05-17T01:52:28.973Z,90.97
2023-05-17T01:53:28.954Z,90.77
2023-05-17T01:54:28.940Z,90.04
2023-05-17T01:55:29.248Z,90.35
2023-05-17T01:56:28.932Z,90.56
2023-05-17T01:57:28.902Z,89.94
2023-05-17T01:58:28.981Z,89.62
2023-05-17T01:59:28.899Z,90.14
2023-05-17T02:00:28.872Z,90.25
2023-05-17T02:01:28.856Z,90.25
2023-05-17T02:02:28.895Z,91.28
2023-05-17T02:03:28.876Z,91.17
2023-05-17T02:04:28.837Z,91.69
2023-05-17T02:05:29.083Z,92.32
2023-05-17T02:06:28.789Z,91.59
2023-05-17T02:07:28.773Z,90.25
2023-05-17T02:08:28.766Z,89.62
2023-05-17T02:09:28.753Z,89.83
2023-05-17T02:10:28.741Z,90.45
2023-05-17T02:11:28.732Z,90.45
2023-05-17T02:12:28.712Z,90.39
2023-05-17T02:13:28.704Z,90.60
2023-05-17T02:14:28.875Z,90.91
2023-05-17T02:15:28.971Z,91.22
2023-05-17T02:16:28.666Z,90.91
2023-05-17T02:17:28.762Z,91.11
2023-05-17T02:18:28.863Z,91.74
2023-05-17T02:19:28.659Z,92.46
2023-05-17T02:20:28.631Z,93.08
2023-05-17T02:21:28.604Z,91.53
2023-05-17T02:22:28.627Z,91.22
2023-05-17T02:23:28.582Z,91.63
2023-05-17T02:24:28.566Z,92.46
2023-05-17T02:25:28.892Z,92.57
2023-05-17T02:26:28.536Z,92.25
2023-05-17T02:27:28.515Z,92.05
2023-05-17T02:28:28.510Z,92.05
2023-05-17T02:29:28.505Z,92.36
2023-05-17T02:30:28.530Z,92.67
2023-05-17T02:31:28.465Z,92.36
2023-05-17T02:32:28.513Z,92.81
2023-05-17T02:33:28.701Z,92.91
2023-05-17T02:34:28.436Z,92.50
2023-05-17T02:35:28.666Z,91.99
2023-05-17T02:36:28.419Z,92.30
2023-05-17T02:37:28.396Z,92.30
2023-05-17T02:38:28.382Z,92.50
2023-05-17T02:39:28.368Z,92.34
2023-05-17T02:40:28.351Z,92.40
2023-05-17T02:41:28.345Z,92.71
2023-05-17T02:42:28.355Z,92.81
2023-05-17T02:43:28.318Z,93.23
2023-05-17T02:44:28.301Z,93.37
2023-05-17T02:45:28.569Z,93.79
2023-05-17T02:46:28.447Z,93.89
2023-05-17T02:47:28.375Z,93.89
2023-05-17T02:48:28.250Z,93.79
2023-05-17T02:49:28.239Z,93.48
2023-05-17T02:50:28.218Z,93.68
2023-05-17T02:51:28.205Z,93.68
2023-05-17T02:52:28.203Z,93.52
2023-05-17T02:53:28.194Z,93.41
2023-05-17T02:54:28.172Z,93.62
2023-05-17T02:55:28.377Z,93.99
2023-05-17T02:56:28.138Z,93.83
2023-05-17T02:57:28.127Z,93.93
2023-05-17T02:58:28.123Z,94.14
2023-05-17T02:59:28.127Z,94.24
2023-05-17T03:00:28.109Z,94.35
2023-05-17T03:01:28.086Z,94.45
2023-05-17T03:02:28.402Z,94.24
2023-05-17T03:03:28.194Z,94.24
2023-05-17T03:04:28.131Z,94.76
2023-05-17T03:05:28.291Z,94.76
2023-05-17T03:06:28.019Z,94.66
2023-05-17T03:07:28.013Z,94.56
2023-05-17T03:08:28.024Z,94.45
2023-05-17T03:09:27.984Z,94.56
2023-05-17T03:10:27.965Z,94.56
2023-05-17T03:11:27.956Z,94.35
2023-05-17T03:12:29.537Z,94.35
2023-05-17T03:13:27.920Z,94.56
2023-05-17T03:14:27.919Z,94.35
2023-05-17T03:15:28.238Z,94.24
2023-05-17T03:16:27.878Z,93.93
2023-05-17T03:17:27.998Z,93.93
2023-05-17T03:18:28.205Z,94.14
2023-05-17T03:19:27.894Z,94.66
2023-05-17T03:20:27.832Z,95.03
2023-05-17T03:21:27.825Z,94.97
2023-05-17T03:22:27.806Z,95.03
2023-05-17T03:23:27.791Z,94.93
2023-05-17T03:24:27.778Z,94.82
2023-05-17T03:25:27.976Z,95.03
2023-05-17T03:26:27.764Z,95.14
2023-05-17T03:27:27.765Z,95.24
2023-05-17T03:28:27.732Z,95.14
2023-05-17T03:29:27.724Z,94.72
2023-05-17T03:30:27.777Z,94.51
2023-05-17T03:31:27.695Z,93.99
2023-05-17T03:32:27.712Z,91.93
2023-05-17T03:33:27.753Z,91.72
2023-05-17T03:34:27.759Z,92.13
2023-05-17T03:35:27.896Z,93.27
2023-05-17T03:36:27.630Z,93.79
2023-05-17T03:37:27.614Z,94.20
2023-05-17T03:38:27.612Z,94.26
2023-05-17T03:39:27.592Z,94.68
2023-05-17T03:40:27.592Z,94.78
2023-05-17T03:41:27.556Z,93.74
2023-05-17T03:42:27.551Z,93.43
2023-05-17T03:43:27.533Z,92.40
2023-05-17T03:44:27.539Z,92.19
2023-05-17T03:45:28.031Z,93.02
2023-05-17T03:46:27.501Z,93.54
2023-05-17T03:47:27.514Z,93.64
2023-05-17T03:48:28.022Z,93.12
2023-05-17T03:49:27.463Z,93.43
2023-05-17T03:50:27.596Z,94.06
2023-05-17T03:51:27.452Z,94.16
2023-05-17T03:52:27.436Z,93.43
2023-05-17T03:53:27.415Z,92.30
2023-05-17T03:54:27.394Z,91.88
2023-05-17T03:55:27.560Z,91.57
2023-05-17T03:56:27.377Z,92.19
2023-05-17T03:57:27.356Z,92.61
2023-05-17T03:58:27.348Z,92.40
2023-05-17T03:59:27.334Z,92.30
2023-05-17T04:00:27.336Z,92.81
2023-05-17T04:01:27.321Z,93.33
2023-05-17T04:02:27.331Z,93.43
2023-05-17T04:03:27.293Z,93.54
2023-05-17T04:04:27.389Z,93.33
2023-05-17T04:05:27.659Z,92.71
2023-05-17T04:06:27.284Z,92.81
2023-05-17T04:07:27.225Z,93.33
2023-05-17T04:08:27.244Z,93.43
2023-05-17T04:09:27.214Z,94.16
2023-05-17T04:10:27.194Z,94.26
2023-05-17T04:11:27.180Z,93.95
2023-05-17T04:12:27.168Z,93.74
2023-05-17T04:13:27.148Z,93.95
2023-05-17T04:14:27.145Z,94.06
2023-05-17T04:16:27.126Z,93.12
2023-05-17T04:17:27.110Z,93.33
2023-05-17T04:18:27.133Z,93.33
2023-05-17T04:19:27.243Z,93.23
2023-05-17T04:20:27.157Z,93.33
2023-05-17T04:21:27.043Z,92.61
2023-05-17T04:22:27.146Z,92.19
2023-05-17T04:23:27.033Z,92.50
2023-05-17T04:24:27.048Z,92.34
2023-05-17T04:25:27.304Z,92.76
2023-05-17T04:26:27.016Z,93.54
2023-05-17T04:27:26.992Z,93.95
2023-05-17T04:28:26.968Z,94.06
2023-05-17T04:29:26.949Z,93.85
2023-05-17T04:30:26.938Z,93.64
2023-05-17T04:31:26.919Z,93.43
2023-05-17T04:32:26.926Z,93.23
2023-05-17T04:33:26.973Z,92.71
2023-05-17T04:34:26.886Z,92.81
2023-05-17T04:35:26.994Z,93.02
2023-05-17T04:36:26.866Z,93.06
2023-05-17T04:37:26.847Z,92.55
2023-05-17T04:38:27.016Z,92.76
2023-05-17T04:39:27.835Z,93.02
2023-05-17T04:40:26.847Z,92.85
2023-05-17T04:41:26.790Z,92.34
2023-05-17T04:42:26.786Z,92.61
2023-05-17T04:43:26.779Z,92.81
2023-05-17T04:44:26.749Z,92.19
2023-05-17T04:45:26.847Z,91.88
2023-05-17T04:46:26.733Z,91.67
2023-05-17T04:47:26.840Z,92.05
2023-05-17T04:48:26.750Z,91.63
2023-05-17T04:49:26.696Z,91.32
2023-05-17T04:50:26.672Z,91.28
2023-05-17T04:51:26.656Z,91.38
2023-05-17T04:52:26.666Z,91.69
2023-05-17T04:53:26.660Z,90.97
2023-05-17T04:54:26.729Z,90.97
2023-05-17T04:55:26.887Z,91.07
2023-05-17T04:56:26.596Z,91.28
2023-05-17T04:57:26.594Z,91.49
2023-05-17T04:58:26.563Z,91.49
2023-05-17T04:59:26.573Z,90.56
2023-05-17T05:00:26.549Z,89.52
2023-05-17T05:01:26.529Z,90.04
2023-05-17T05:02:26.552Z,89.83
2023-05-17T05:03:26.621Z,89.01
2023-05-17T05:04:26.514Z,88.80
2023-05-17T05:05:26.674Z,89.22
2023-05-17T05:06:26.467Z,89.62
2023-05-17T05:07:26.456Z,90.04
2023-05-17T05:08:26.450Z,90.04
2023-05-17T05:09:26.424Z,88.80
2023-05-17T05:10:26.508Z,88.18
2023-05-17T05:11:26.406Z,88.80
2023-05-17T05:12:26.391Z,88.70
2023-05-17T05:13:26.377Z,88.49
2023-05-17T05:14:26.355Z,88.49
2023-05-17T05:15:26.523Z,88.18
2023-05-17T05:16:26.326Z,88.76
2023-05-17T05:17:26.415Z,87.83
2023-05-17T05:18:26.416Z,87.52
2023-05-17T05:19:26.326Z,87.31
2023-05-17T05:20:27.977Z,86.90
2023-05-17T05:21:26.273Z,86.65
2023-05-17T05:22:26.260Z,86.96
2023-05-17T05:23:26.254Z,87.37
2023-05-17T05:24:26.236Z,87.37
2023-05-17T05:25:26.325Z,86.55
2023-05-17T05:26:26.387Z,86.82
2023-05-17T05:27:26.190Z,86.20
2023-05-17T05:28:26.185Z,86.30
2023-05-17T05:29:26.163Z,85.99
2023-05-17T05:30:26.164Z,84.51
2023-05-17T05:31:26.154Z,85.64
2023-05-17T05:32:26.155Z,84.81
2023-05-17T05:33:26.235Z,83.44
2023-05-17T05:34:26.109Z,84.67
2023-05-17T05:35:26.171Z,84.22
2023-05-17T05:36:26.117Z,83.91
2023-05-17T05:37:26.090Z,83.77
2023-05-17T05:38:26.044Z,82.64
2023-05-17T05:39:26.062Z,80.58
2023-05-17T05:40:26.169Z,79.51
2023-05-17T05:41:26.027Z,80.02
2023-05-17T05:42:26.262Z,79.82
2023-05-17T05:43:25.989Z,78.96
2023-05-17T05:44:26.134Z,78.10
2023-05-17T05:45:25.963Z,78.51
2023-05-17T05:46:25.941Z,77.31
2023-05-17T05:47:26.006Z,76.90
2023-05-17T05:48:25.983Z,76.42
2023-05-17T05:49:25.901Z,75.32
2023-05-17T05:50:25.982Z,72.92
2023-05-17T05:51:25.888Z,72.89
2023-05-17T05:52:25.870Z,72.58
2023-05-17T05:53:25.858Z,71.05
2023-05-17T05:54:25.849Z,66.93
2023-05-17T05:55:25.822Z,67.24
2023-05-17T05:56:25.839Z,66.86
2023-05-17T05:57:25.817Z,68.29
2023-05-17T05:58:25.906Z,66.48
2023-05-17T05:59:25.775Z,67.50
2023-05-17T06:00:25.875Z,67.68
2023-05-17T06:01:25.761Z,67.89
2023-05-17T06:02:25.760Z,64.46
2023-05-17T06:03:25.730Z,64.56
2023-05-17T06:04:36.399Z,64.08
2023-05-17T06:05:26.795Z,64.45
2023-05-17T06:06:25.843Z,66.83
2023-05-17T06:07:25.690Z,67.03
2023-05-17T06:08:25.661Z,67.78
2023-05-17T06:09:25.656Z,66.92
2023-05-17T06:10:25.655Z,67.54
2023-05-17T06:11:25.628Z,67.02
2023-05-17T06:12:25.616Z,67.60
2023-05-17T06:13:25.598Z,67.37
2023-05-17T06:14:25.747Z,66.17
2023-05-17T06:15:25.577Z,66.89
2023-05-17T06:16:25.561Z,66.48
2023-05-17T06:17:25.616Z,67.10
2023-05-17T06:18:25.683Z,68.29
2023-05-17T06:19:25.679Z,66.75
2023-05-17T06:20:25.522Z,67.13
2023-05-17T06:21:25.497Z,65.98
2023-05-17T06:22:25.496Z,66.25
2023-05-17T06:23:25.470Z,63.03
2023-05-17T06:24:25.461Z,62.49
2023-05-17T06:25:25.452Z,63.31
2023-05-17T06:26:25.442Z,65.28
2023-05-17T06:27:25.427Z,64.39
2023-05-17T06:28:25.417Z,63.60
2023-05-17T06:29:25.392Z,64.62
2023-05-17T06:30:25.563Z,62.81
2023-05-17T06:31:25.374Z,61.76
2023-05-17T06:32:25.401Z,61.50
2023-05-17T06:33:25.434Z,60.64
2023-05-17T06:34:25.330Z,56.90
2023-05-17T06:35:25.313Z,55.12
2023-05-17T06:36:25.506Z,54.79
2023-05-17T06:37:25.292Z,52.36
2023-05-17T06:38:25.278Z,50.02
2023-05-17T06:39:25.272Z,48.64
2023-05-17T06:40:25.249Z,48.66
2023-05-17T06:41:25.244Z,47.19
2023-05-17T06:42:25.229Z,46.88
2023-05-17T06:43:25.223Z,49.51
2023-05-17T06:44:25.203Z,48.22
2023-05-17T06:45:25.186Z,48.08
2023-05-17T06:46:25.303Z,48.08
2023-05-17T06:47:25.206Z,47.03
2023-05-17T06:48:25.247Z,45.36
2023-05-17T06:49:25.141Z,44.07
2023-05-17T06:50:25.135Z,46.01
2023-05-17T06:51:25.120Z,48.46
2023-05-17T06:52:25.093Z,48.39
2023-05-17T06:53:25.084Z,49.90
2023-05-17T06:54:25.066Z,51.09
2023-05-17T06:55:25.065Z,51.06
2023-05-17T06:56:25.052Z,51.46
2023-05-17T06:57:25.035Z,50.86
2023-05-17T06:58:25.015Z,51.92
2023-05-17T06:59:25.003Z,51.44
2023-05-17T07:00:24.992Z,52.23
2023-05-17T07:01:24.980Z,52.99
2023-05-17T07:02:25.233Z,51.34
2023-05-17T07:03:25.006Z,53.12
2023-05-17T07:04:25.210Z,52.72
2023-05-17T07:05:25.011Z,51.05
2023-05-17T07:06:24.921Z,48.80
2023-05-17T07:07:24.908Z,47.11
2023-05-17T07:08:24.895Z,49.45
2023-05-17T07:09:24.889Z,48.02
2023-05-17T07:10:24.888Z,47.41
2023-05-17T07:11:24.861Z,48.27
2023-05-17T07:12:24.885Z,47.60
2023-05-17T07:13:24.837Z,49.27
2023-05-17T07:14:24.821Z,49.39
2023-05-17T07:15:24.830Z,49.52
2023-05-17T07:16:24.783Z,51.14
2023-05-17T07:17:24.909Z,49.98
2023-05-17T07:18:25.098Z,48.82
2023-05-17T07:19:24.856Z,49.62
2023-05-17T07:20:24.755Z,49.98
2023-05-17T07:21:24.743Z,51.35
2023-05-17T07:22:24.719Z,48.82
2023-05-17T07:23:24.710Z,50.18
2023-05-17T07:24:24.695Z,50.66
2023-05-17T07:25:24.684Z,52.48
2023-05-17T07:26:24.664Z,50.51
2023-05-17T07:27:24.650Z,51.42
2023-05-17T07:28:24.649Z,54.69
2023-05-17T07:29:24.627Z,55.43
2023-05-17T07:30:24.612Z,55.41
2023-05-17T07:31:24.608Z,55.69
2023-05-17T07:32:24.640Z,58.11
2023-05-17T07:33:24.590Z,59.70
2023-05-17T07:34:24.690Z,60.62
2023-05-17T07:35:24.573Z,60.24
2023-05-17T07:36:24.596Z,60.55
2023-05-17T07:37:24.520Z,60.88
2023-05-17T07:38:24.509Z,63.00
2023-05-17T07:39:24.500Z,62.49
2023-05-17T07:40:24.510Z,61.09
2023-05-17T07:41:24.483Z,63.13
2023-05-17T07:42:24.453Z,61.93
2023-05-17T07:43:24.450Z,62.52
2023-05-17T07:44:24.431Z,62.21
2023-05-17T07:45:24.426Z,62.32
2023-05-17T07:46:24.403Z,61.40
2023-05-17T07:47:24.461Z,61.93
2023-05-17T07:48:24.500Z,62.14
2023-05-17T07:49:24.483Z,63.57
2023-05-17T07:50:24.545Z,65.90
2023-05-17T07:51:24.345Z,64.06
2023-05-17T07:52:24.336Z,65.36
2023-05-17T07:53:24.375Z,65.12
2023-05-17T07:54:24.301Z,62.77
2023-05-17T07:55:24.286Z,60.42
2023-05-17T07:56:24.274Z,61.75
2023-05-17T07:57:24.273Z,62.71
2023-05-17T07:58:24.281Z,60.74
2023-05-17T07:59:24.236Z,58.19
2023-05-17T08:00:24.464Z,57.98
2023-05-17T08:01:24.233Z,58.37
2023-05-17T08:02:24.254Z,57.68
2023-05-17T08:03:24.193Z,56.99
2023-05-17T08:04:24.527Z,57.73
2023-05-17T08:05:24.362Z,58.58
2023-05-17T08:06:24.258Z,59.09
2023-05-17T08:07:24.139Z,59.53
2023-05-17T08:08:24.122Z,60.35
2023-05-17T08:09:24.130Z,60.14
2023-05-17T08:10:24.179Z,60.72
2023-05-17T08:11:24.118Z,60.24
2023-05-17T08:12:24.073Z,60.03
2023-05-17T08:13:24.076Z,60.03
2023-05-17T08:14:24.050Z,59.96
2023-05-17T08:15:24.041Z,60.96
2023-05-17T08:16:24.025Z,60.85
2023-05-17T08:17:24.059Z,61.13
2023-05-17T08:18:24.095Z,60.39
2023-05-17T08:19:24.143Z,58.11
2023-05-17T08:20:23.993Z,59.16
2023-05-17T08:21:23.957Z,58.48
2023-05-17T08:22:24.089Z,58.78
2023-05-17T08:23:23.943Z,58.29
2023-05-17T08:24:24.123Z,58.29
2023-05-17T08:25:23.895Z,58.78
2023-05-17T08:26:23.894Z,60.19
2023-05-17T08:27:23.892Z,59.88
2023-05-17T08:28:23.869Z,59.44
2023-05-17T08:29:23.868Z,58.04
2023-05-17T08:31:23.826Z,58.96
2023-05-17T08:32:23.893Z,59.16
2023-05-17T08:33:23.882Z,58.14
2023-05-17T08:34:23.781Z,60.49
2023-05-17T08:35:25.609Z,57.43
2023-05-17T08:36:23.781Z,58.45
2023-05-17T08:37:23.766Z,61.72
2023-05-17T08:38:23.910Z,62.81
2023-05-17T08:39:24.392Z,59.95
2023-05-17T08:40:23.871Z,59.23
2023-05-17T08:41:23.722Z,59.75
2023-05-17T08:42:23.674Z,61.35
2023-05-17T08:43:25.260Z,59.92
2023-05-17T08:44:23.672Z,60.13
2023-05-17T08:45:23.643Z,61.73
2023-05-17T08:46:23.712Z,61.83
2023-05-17T08:47:23.666Z,60.30
2023-05-17T08:48:23.797Z,59.39
2023-05-17T08:49:23.665Z,59.59
2023-05-17T08:50:23.571Z,58.67
2023-05-17T08:51:23.579Z,61.94
2023-05-17T08:52:23.561Z,61.94
2023-05-17T08:53:23.713Z,60.30
2023-05-17T08:54:23.684Z,60.51
2023-05-17T08:55:23.532Z,60.41
2023-05-17T08:56:23.505Z,58.87
2023-05-17T08:57:23.505Z,58.50
2023-05-17T08:58:23.499Z,58.11
2023-05-17T08:59:23.456Z,59.14
2023-05-17T09:00:23.445Z,59.55
2023-05-17T09:01:25.551Z,59.64
2023-05-17T09:02:23.482Z,60.36
2023-05-17T09:03:23.469Z,60.87
2023-05-17T09:04:23.405Z,61.69
2023-05-17T09:05:23.437Z,61.38
2023-05-17T09:06:23.374Z,60.53
2023-05-17T09:07:23.355Z,60.23
2023-05-17T09:08:23.344Z,61.56
2023-05-17T09:09:23.327Z,58.91
2023-05-17T09:10:23.363Z,59.08
2023-05-17T09:11:23.306Z,60.82
2023-05-17T09:12:25.341Z,59.36
2023-05-17T09:13:23.274Z,58.03
2023-05-17T09:14:23.267Z,60.14
2023-05-17T09:15:23.254Z,60.83
2023-05-17T09:16:23.237Z,55.84
2023-05-17T09:17:23.262Z,59.84
2023-05-17T09:18:23.342Z,57.87
2023-05-17T09:19:23.327Z,58.49
2023-05-17T09:20:23.318Z,58.89
2023-05-17T09:21:23.174Z,56.78
2023-05-17T09:22:23.185Z,58.59
2023-05-17T09:23:23.151Z,56.99
2023-05-17T09:24:24.665Z,55.26
2023-05-17T09:25:23.132Z,54.57
2023-05-17T09:26:23.134Z,55.89
2023-05-17T09:27:23.093Z,55.18
2023-05-17T09:28:23.090Z,53.88
2023-05-17T09:29:23.069Z,54.39
2023-05-17T09:30:25.146Z,53.59
2023-05-17T09:31:23.057Z,53.80
2023-05-17T09:32:23.092Z,55.94
2023-05-17T09:33:23.059Z,55.15
2023-05-17T09:34:22.999Z,54.95
2023-05-17T09:35:23.011Z,56.58
2023-05-17T09:36:22.988Z,54.74
2023-05-17T09:37:22.993Z,54.95
2023-05-17T09:38:24.903Z,58.01
2023-05-17T09:39:22.964Z,54.95
2023-05-17T09:40:22.943Z,54.92
2023-05-17T09:41:22.918Z,58.60
2023-05-17T09:42:22.935Z,54.90
2023-05-17T09:43:22.903Z,56.63
2023-05-17T09:44:23.492Z,52.75
2023-05-17T09:45:22.860Z,52.65
2023-05-17T09:46:22.853Z,58.54
2023-05-17T09:47:22.875Z,56.40
2023-05-17T09:48:22.853Z,53.14
2023-05-17T09:49:22.817Z,52.83
2023-05-17T09:50:25.461Z,55.66
2023-05-17T09:51:22.788Z,54.03
2023-05-17T09:52:22.770Z,52.09
2023-05-17T09:53:22.757Z,54.92
2023-05-17T09:54:22.743Z,54.61
2023-05-17T09:55:22.736Z,54.51
2023-05-17T09:56:22.715Z,51.66
2023-05-17T09:57:22.707Z,52.40
2023-05-17T09:58:22.729Z,55.46
2023-05-17T09:59:22.679Z,54.05
2023-05-17T10:00:22.674Z,56.10
2023-05-17T10:01:22.664Z,53.77
2023-05-17T10:02:22.676Z,54.72
2023-05-17T10:03:22.754Z,57.37
2023-05-17T10:04:22.623Z,55.74
2023-05-17T10:05:22.717Z,56.23
2023-05-17T10:06:38.347Z,54.69
2023-05-17T10:07:23.608Z,55.10
2023-05-17T10:08:22.565Z,54.90
2023-05-17T10:09:22.708Z,55.30
2023-05-17T10:10:22.538Z,53.36
2023-05-17T10:11:22.533Z,51.43
2023-05-17T10:12:23.625Z,51.12
2023-05-17T10:13:22.534Z,51.73
2023-05-17T10:14:23.172Z,51.63
2023-05-17T10:15:22.471Z,54.08
2023-05-17T10:16:22.459Z,53.49
2023-05-17T10:17:22.447Z,54.79
2023-05-17T10:18:22.511Z,55.51
2023-05-17T10:19:22.487Z,54.18
2023-05-17T10:20:22.422Z,54.18
2023-05-17T10:21:22.394Z,55.63
2023-05-17T10:22:23.879Z,54.21
2023-05-17T10:23:22.390Z,54.72
2023-05-17T10:24:22.365Z,56.04
2023-05-17T10:25:22.353Z,58.16
2023-05-17T10:26:22.338Z,53.90
2023-05-17T10:27:22.323Z,54.51
2023-05-17T10:28:22.304Z,54.41
2023-05-17T10:29:22.292Z,53.08
2023-05-17T10:30:22.343Z,53.90
2023-05-17T10:31:22.281Z,53.59
2023-05-17T10:32:22.292Z,54.11
2023-05-17T10:33:22.421Z,53.29
2023-05-17T10:34:22.463Z,53.90
2023-05-17T10:35:22.214Z,54.82
2023-05-17T10:36:22.226Z,54.79
2023-05-17T10:37:22.217Z,52.96
2023-05-17T10:38:26.309Z,54.28
2023-05-17T10:39:23.204Z,55.71
2023-05-17T10:40:22.177Z,54.05
2023-05-17T10:41:22.142Z,53.34
2023-05-17T10:42:22.138Z,54.77
2023-05-17T10:43:22.122Z,54.67
2023-05-17T10:44:22.107Z,54.26
2023-05-17T10:45:22.137Z,53.14
2023-05-17T10:46:22.146Z,52.83
2023-05-17T10:47:22.064Z,55.38
2023-05-17T10:48:22.177Z,54.97
2023-05-17T10:49:24.597Z,54.67
2023-05-17T10:50:22.018Z,51.40
2023-05-17T10:51:22.023Z,53.55
2023-05-17T10:52:21.994Z,53.55
2023-05-17T10:53:21.977Z,52.93
2023-05-17T10:54:21.966Z,53.85
2023-05-17T10:55:22.027Z,56.68
2023-05-17T10:56:21.937Z,56.68
2023-05-17T10:57:21.938Z,53.50
2023-05-17T10:58:21.919Z,52.20
2023-05-17T10:59:22.219Z,53.52
2023-05-17T11:00:22.205Z,54.16
2023-05-17T11:01:21.888Z,54.08
2023-05-17T11:02:21.956Z,53.77
2023-05-17T11:03:21.852Z,55.30
2023-05-17T11:04:21.877Z,54.39
2023-05-17T11:05:21.837Z,52.65
2023-05-17T11:06:24.028Z,53.16
2023-05-17T11:07:21.838Z,53.16
2023-05-17T11:08:21.782Z,53.67
2023-05-17T11:09:21.773Z,55.61
2023-05-17T11:10:21.751Z,57.14
2023-05-17T11:11:21.743Z,54.67
2023-05-17T11:12:21.725Z,54.36
2023-05-17T11:13:21.718Z,54.26
2023-05-17T11:14:21.700Z,52.12
2023-05-17T11:15:21.697Z,51.91
2023-05-17T11:16:21.683Z,50.81
2023-05-17T11:17:21.840Z,51.91
2023-05-17T11:18:30.116Z,51.32
2023-05-17T11:19:22.757Z,52.45
2023-05-17T11:20:21.755Z,50.92
2023-05-17T11:21:21.616Z,52.65
2023-05-17T11:22:21.600Z,51.84
2023-05-17T11:23:21.608Z,53.14
2023-05-17T11:24:22.517Z,52.32
2023-05-17T11:25:21.564Z,52.93
2023-05-17T11:26:21.566Z,52.32
2023-05-17T11:27:21.541Z,52.42
2023-05-17T11:28:21.528Z,54.05
2023-05-17T11:29:21.509Z,56.17
2023-05-17T11:30:21.512Z,54.57
2023-05-17T11:31:21.520Z,56.10
2023-05-17T11:32:21.554Z,58.62
2023-05-17T11:33:32.961Z,59.74
2023-05-17T11:34:22.558Z,59.41
2023-05-17T11:35:21.450Z,55.84
2023-05-17T11:36:21.433Z,57.17
2023-05-17T11:37:21.418Z,56.35
2023-05-17T11:38:21.390Z,57.06
2023-05-17T11:39:21.402Z,55.74
2023-05-17T11:40:21.364Z,54.92
2023-05-17T11:42:21.350Z,53.92
2023-05-17T11:43:21.334Z,54.44
2023-05-17T11:44:21.321Z,54.64
2023-05-17T11:45:21.301Z,53.96
2023-05-17T11:46:21.319Z,55.26
2023-05-17T11:47:21.300Z,55.35
2023-05-17T11:48:21.458Z,55.87
2023-05-17T11:49:34.060Z,56.37
2023-05-17T11:50:22.308Z,54.03
2023-05-17T11:51:23.871Z,55.48
2023-05-17T11:52:21.219Z,55.76
2023-05-17T11:53:21.197Z,56.07
2023-05-17T11:54:21.189Z,56.58
2023-05-17T11:55:21.177Z,55.66
2023-05-17T11:56:29.094Z,53.52
2023-05-17T11:57:22.167Z,55.35
2023-05-17T11:58:21.146Z,54.24
2023-05-17T11:59:21.130Z,54.33
2023-05-17T12:00:21.121Z,54.54
2023-05-17T12:01:21.099Z,54.41
2023-05-17T12:02:21.090Z,54.00
2023-05-17T12:03:21.088Z,54.39
2023-05-17T12:04:21.086Z,56.02
2023-05-17T12:05:21.040Z,53.44
2023-05-17T12:06:21.112Z,54.26
2023-05-17T12:07:21.024Z,52.43
2023-05-17T12:08:21.000Z,51.81
2023-05-17T12:09:20.987Z,51.31
2023-05-17T12:10:20.978Z,52.22
2023-05-17T12:11:20.972Z,52.55
2023-05-17T12:12:20.956Z,52.27
2023-05-17T12:13:20.948Z,51.56
2023-05-17T12:14:20.926Z,51.99
2023-05-17T12:15:20.928Z,52.81
2023-05-17T12:16:20.908Z,54.00
2023-05-17T12:17:20.884Z,55.81
2023-05-17T12:18:21.072Z,55.41
2023-05-17T12:19:21.024Z,54.16
2023-05-17T12:20:20.897Z,53.44
2023-05-17T12:21:20.839Z,52.71
2023-05-17T12:22:20.842Z,52.10
2023-05-17T12:23:20.827Z,52.50
2023-05-17T12:24:20.826Z,54.11
2023-05-17T12:25:20.796Z,54.82
2023-05-17T12:26:20.780Z,53.29
2023-05-17T12:27:20.756Z,57.36
2023-05-17T12:28:20.735Z,55.22
2023-05-17T12:29:20.728Z,53.39
2023-05-17T12:30:20.716Z,52.20
2023-05-17T12:31:20.710Z,52.94
2023-05-17T12:32:20.701Z,54.26
2023-05-17T12:33:21.004Z,53.47
2023-05-17T12:34:20.682Z,54.00
2023-05-17T12:35:20.653Z,53.59
2023-05-17T12:36:20.644Z,55.81
2023-05-17T12:37:20.637Z,54.79
2023-05-17T12:38:20.657Z,57.34
2023-05-17T12:39:20.614Z,58.13
2023-05-17T12:40:20.588Z,56.37
2023-05-17T12:41:20.581Z,53.63
2023-05-17T12:42:20.570Z,54.72
2023-05-17T12:43:20.544Z,56.04
2023-05-17T12:44:20.547Z,53.19
2023-05-17T12:45:20.538Z,54.51
2023-05-17T12:46:20.511Z,52.20
2023-05-17T12:47:20.513Z,51.92
2023-05-17T12:48:20.551Z,51.84
2023-05-17T12:49:20.509Z,54.49
2023-05-17T12:50:20.469Z,55.02
2023-05-17T12:51:20.450Z,55.02
2023-05-17T12:52:20.427Z,55.22
2023-05-17T12:53:20.432Z,56.35
2023-05-17T12:54:20.436Z,55.84
2023-05-17T12:55:20.406Z,55.43